CDT,Max TemperatureF,Mean TemperatureF,Min TemperatureF,Max Dew PointF,MeanDew PointF,Min DewpointF,Max Humidity, Mean Humidity, Min Humidity, Max Sea Level PressureIn, Mean Sea Level PressureIn, Min Sea Level PressureIn, Max VisibilityMiles, Mean VisibilityMiles, Min VisibilityMiles, Max Wind SpeedMPH, Mean Wind SpeedMPH, Max Gust SpeedMPH,PrecipitationIn, CloudCover, Events, WindDirDegrees
2012-3-1,85,78,71,69,68,66,93,74,55,29.93,29.84,29.73,10,10,8,25,15,30,0.00,4,,158
2012-3-2,90,80,70,70,68,66,97,72,47,29.71,29.67,29.59,10,10,6,20,11,25,0.00,3,,154
2012-3-3,75,64,53,70,48,28,87,55,22,30.24,29.94,29.65,10,9,6,32,15,39,0.00,4,,357
2012-3-4,76,61,45,45,38,29,76,48,19,30.34,30.26,30.19,10,10,10,16,5,21,0.00,0,,142
2012-3-5,81,65,49,56,51,46,93,65,36,30.33,30.25,30.21,10,10,10,24,11,29,0.00,0,,129
2012-3-6,80,69,58,63,57,55,87,65,42,30.22,30.08,29.97,10,10,10,36,17,47,0.00,2,,140
2012-3-7,85,76,66,68,65,63,100,74,48,30.01,29.94,29.84,10,10,9,33,20,48,T,6,Rain,149
2012-3-8,90,80,70,70,68,66,90,70,50,30.02,29.88,29.77,10,10,6,44,22,56,0.00,4,,153
2012-3-9,74,61,47,70,49,43,100,87,74,30.33,30.23,30.03,10,9,4,26,16,37,0.03,8,Rain-Thunderstorm,316
2012-3-10,54,51,47,49,46,44,93,85,77,30.28,30.17,30.06,10,10,10,14,7,17,T,8,Rain,314
2012-3-11,75,64,53,59,54,50,100,77,54,30.14,30.05,29.98,10,10,4,14,6,16,0.01,5,Rain,336
2012-3-12,85,71,57,69,63,57,100,77,54,30.10,30.04,29.97,10,7,0,18,8,23,0.00,6,Fog,134
2012-3-13,88,78,67,70,67,59,97,69,40,30.09,30.04,29.96,10,9,6,29,14,35,0.00,4,,135
2012-3-14,88,80,71,70,68,58,87,62,36,30.08,30.02,29.97,10,10,8,29,17,38,0.00,5,,138
2012-3-15,89,81,72,70,68,63,93,68,43,30.12,30.05,29.99,10,10,7,28,17,36,0.00,4,,136
2012-3-16,87,80,73,70,67,64,87,67,46,30.09,30.02,29.95,10,10,8,28,17,37,0.00,6,,134
2012-3-17,86,79,71,70,67,64,93,74,55,30.03,29.96,29.88,10,10,10,30,17,38,0.00,6,,135
2012-3-18,86,79,71,70,68,65,90,73,55,29.97,29.91,29.83,10,10,6,28,17,37,0.00,5,,139
2012-3-19,91,83,74,71,69,68,82,66,50,29.86,29.73,29.59,10,10,10,33,20,44,0.00,5,,148
2012-3-20,80,73,65,70,59,47,87,63,39,29.88,29.69,29.50,10,10,9,32,15,46,T,6,,26
2012-3-21,85,70,55,48,39,22,67,39,10,29.99,29.91,29.84,10,10,10,17,6,29,0.00,3,,340
2012-3-22,87,71,55,52,49,42,83,56,28,29.99,29.93,29.83,10,10,10,17,8,22,0.00,0,,149
2012-3-23,91,75,58,66,61,55,93,65,36,30.00,29.94,29.87,10,10,10,16,7,22,0.00,0,,130
2012-3-24,91,80,68,70,67,62,94,76,39,30.00,29.96,29.89,10,9,6,10,7,17,0.00,5,,121
2012-3-25,92,82,72,70,67,62,93,66,38,30.03,29.98,29.92,10,9,5,22,10,26,0.00,6,,106
2012-3-26,89,80,71,68,67,66,84,66,47,30.05,29.98,29.88,10,10,10,21,12,25,0.00,7,,120
2012-3-27,90,81,72,72,69,66,90,69,47,30.01,29.97,29.91,10,10,10,22,14,29,0.07,6,Rain,125
2012-3-28,89,81,72,70,68,64,93,70,46,30.00,29.94,29.85,10,10,10,23,13,29,T,5,,129
2012-3-29,94,79,63,72,67,61,93,67,41,30.01,29.87,29.73,10,8,0,55,13,74,4.37,6,Fog-Rain,117
2012-3-30,87,76,64,72,65,59,87,72,57,29.92,29.84,29.77,10,10,10,23,8,29,T,3,Rain-Thunderstorm,109
2012-3-31,91,80,68,72,69,65,100,76,52,29.89,29.84,29.77,10,7,0,20,7,24,T,1,Fog-Rain,129